createdAt,value
2023-05-23T00:02:08.952Z,3.80
2023-05-23T00:04:37.057Z,3.60
2023-05-23T00:07:04.898Z,3.20
2023-05-23T00:09:33.018Z,2.90
2023-05-23T00:12:00.866Z,4.20
2023-05-23T00:14:31.605Z,3.60
2023-05-23T00:16:59.803Z,3.50
2023-05-23T00:19:27.511Z,3.50
2023-05-23T00:21:58.771Z,3.40
2023-05-23T00:24:27.637Z,3.70
2023-05-23T00:26:55.485Z,3.50
2023-05-23T00:31:51.275Z,2.70
2023-05-23T00:36:50.541Z,2.40
2023-05-23T00:39:21.751Z,3.20
2023-05-23T00:41:52.296Z,3.30
2023-05-23T00:44:21.910Z,3.40
2023-05-23T00:46:52.553Z,2.80
2023-05-23T00:49:20.832Z,3.10
2023-05-23T00:51:49.938Z,3.80
2023-05-23T00:54:19.326Z,3.80
2023-05-23T00:56:48.449Z,3.30
2023-05-23T00:59:16.462Z,3.40
2023-05-23T01:01:47.565Z,3.60
2023-05-23T01:04:16.984Z,3.40
2023-05-23T01:06:47.085Z,3.30
2023-05-23T01:09:18.008Z,3.20
2023-05-23T01:12:07.205Z,3.30
2023-05-23T01:14:39.135Z,3.30
2023-05-23T01:17:12.052Z,3.50
2023-05-23T01:21:43.499Z,3.30
2023-05-23T01:27:23.816Z,2.80
2023-05-23T01:29:55.134Z,3.10
2023-05-23T01:32:23.201Z,3.50
2023-05-23T01:37:19.859Z,3.40
2023-05-23T01:39:47.975Z,3.20
2023-05-23T01:42:15.908Z,3.20
2023-05-23T01:44:45.342Z,3.70
2023-05-23T01:47:12.904Z,3.20
2023-05-23T01:49:40.717Z,4.00
2023-05-23T01:52:13.530Z,4.00
2023-05-23T01:54:42.710Z,3.80
2023-05-23T01:57:11.533Z,3.50
2023-05-23T01:59:39.280Z,3.80
2023-05-23T02:02:07.891Z,3.40
2023-05-23T02:04:36.255Z,3.60
2023-05-23T02:07:03.920Z,3.70
2023-05-23T02:09:31.600Z,3.60
2023-05-23T02:11:59.820Z,4.00
2023-05-23T02:14:29.198Z,3.70
2023-05-23T02:16:56.920Z,3.70
2023-05-23T02:19:24.565Z,3.90
2023-05-23T02:21:52.185Z,4.10
2023-05-23T02:24:19.876Z,3.60
2023-05-23T02:26:47.567Z,3.90
2023-05-23T02:29:15.200Z,4.00
2023-05-23T02:31:43.085Z,3.70
2023-05-23T02:36:39.619Z,3.20
2023-05-23T02:39:07.654Z,3.30
2023-05-23T02:41:37.268Z,3.90
2023-05-23T02:44:06.031Z,3.40
2023-05-23T02:46:33.758Z,3.50
2023-05-23T02:49:01.434Z,3.80
2023-05-23T02:51:29.229Z,3.10
2023-05-23T02:53:57.097Z,3.00
2023-05-23T02:56:27.065Z,3.70
2023-05-23T02:58:54.880Z,2.90
2023-05-23T03:01:23.491Z,3.20
2023-05-23T03:03:51.257Z,3.20
2023-05-23T03:06:19.314Z,3.30
2023-05-23T03:08:47.342Z,3.10
2023-05-23T03:11:15.034Z,3.60
2023-05-23T03:13:44.776Z,3.80
2023-05-23T03:16:13.319Z,3.60
2023-05-23T03:18:42.320Z,3.60
2023-05-23T03:21:10.105Z,3.80
2023-05-23T03:23:37.876Z,3.40
2023-05-23T03:26:06.885Z,3.40
2023-05-23T03:28:34.553Z,3.20
2023-05-23T03:31:02.292Z,3.80
2023-05-23T03:38:27.337Z,2.90
2023-05-23T03:40:55.332Z,2.80
2023-05-23T03:43:23.130Z,2.90
2023-05-23T03:45:50.864Z,3.20
2023-05-23T03:48:18.661Z,3.50
2023-05-23T03:50:47.895Z,3.20
2023-05-23T03:55:44.372Z,3.00
2023-05-23T03:58:12.565Z,2.60
2023-05-23T04:03:10.908Z,2.70
2023-05-23T04:05:40.216Z,3.10
2023-05-23T04:08:08.432Z,3.00
2023-05-23T04:10:36.341Z,2.80
2023-05-23T04:13:04.598Z,3.10
2023-05-23T04:15:34.529Z,3.10
2023-05-23T04:18:09.520Z,3.00
2023-05-23T04:20:38.667Z,2.90
2023-05-23T04:23:06.312Z,3.10
2023-05-23T04:25:36.966Z,2.70
2023-05-23T04:28:17.876Z,3.20
2023-05-23T04:30:46.099Z,3.30
2023-05-23T04:33:14.124Z,3.20
2023-05-23T04:35:42.099Z,2.90
2023-05-23T04:38:10.363Z,3.10
2023-05-23T04:40:38.215Z,2.70
2023-05-23T04:43:26.821Z,2.80
2023-05-23T04:45:58.319Z,2.80
2023-05-23T04:51:11.783Z,2.80
2023-05-23T08:26:36.831Z,1.70
2023-05-23T08:29:06.623Z,1.40
2023-05-23T08:31:37.261Z,1.40
2023-05-23T08:34:05.586Z,1.90
2023-05-23T08:36:36.710Z,1.30
2023-05-23T08:39:05.011Z,1.70
2023-05-23T08:41:36.801Z,1.40
2023-05-23T08:44:08.023Z,1.50
2023-05-23T08:46:41.449Z,1.50
2023-05-23T08:49:09.229Z,1.70
2023-05-23T08:54:09.428Z,2.00
2023-05-23T08:56:37.217Z,1.80
2023-05-23T08:59:05.417Z,2.00
2023-05-23T09:01:34.299Z,1.60
2023-05-23T09:04:05.326Z,1.80
2023-05-23T09:07:05.388Z,1.50
2023-05-23T09:09:34.147Z,1.70
2023-05-23T09:12:03.550Z,1.50
2023-05-23T09:14:32.178Z,1.50
2023-05-23T09:17:04.509Z,1.70
2023-05-23T09:19:33.767Z,1.40
2023-05-23T09:22:12.750Z,1.80
2023-05-23T09:24:53.558Z,1.60
2023-05-23T09:27:21.711Z,1.70
2023-05-23T09:29:49.940Z,1.80
2023-05-23T09:32:19.757Z,1.50
2023-05-23T09:35:02.706Z,1.70
2023-05-23T09:37:37.926Z,1.60
2023-05-23T09:40:10.890Z,1.60
2023-05-23T09:42:44.341Z,1.90
2023-05-23T09:45:12.689Z,1.80
2023-05-23T09:47:40.426Z,1.90
2023-05-23T09:52:38.647Z,1.40
2023-05-23T09:55:07.180Z,1.70
2023-05-23T09:57:45.936Z,2.20
2023-05-23T10:00:14.338Z,2.00
2023-05-23T10:03:13.767Z,1.60
2023-05-23T10:05:45.094Z,1.40
2023-05-23T10:08:47.194Z,1.60
2023-05-23T10:11:14.838Z,1.70
2023-05-23T10:16:23.361Z,1.70
2023-05-23T10:18:56.948Z,1.70
2023-05-23T10:21:36.337Z,1.40
2023-05-23T10:24:04.443Z,1.80
2023-05-23T10:26:32.067Z,1.60
2023-05-23T10:28:59.778Z,1.90
2023-05-23T10:31:27.769Z,1.70
2023-05-23T10:34:18.110Z,1.70
2023-05-23T10:37:02.495Z,1.60
2023-05-23T10:39:39.349Z,1.80
2023-05-23T10:42:17.784Z,1.50
2023-05-23T10:44:45.542Z,1.80
2023-05-23T10:49:44.988Z,1.80
2023-05-23T10:52:14.151Z,1.60
2023-05-23T10:54:44.932Z,1.60
2023-05-23T10:57:16.770Z,1.90
2023-05-23T10:59:45.728Z,1.50
2023-05-23T11:02:15.987Z,1.90
2023-05-23T11:04:43.843Z,1.60
2023-05-23T11:12:40.964Z,1.50
2023-05-23T11:15:17.761Z,1.30
2023-05-23T11:17:55.039Z,1.70
2023-05-23T11:20:26.789Z,1.90
2023-05-23T11:23:05.711Z,2.00
2023-05-23T11:25:48.605Z,2.00
2023-05-23T11:28:17.490Z,1.60
2023-05-23T11:30:45.541Z,2.00
2023-05-23T11:33:17.250Z,2.30
2023-05-23T11:35:49.654Z,1.80
2023-05-23T11:38:17.654Z,1.60
2023-05-23T11:40:46.590Z,1.90
2023-05-23T11:43:15.879Z,1.60
2023-05-23T11:45:43.615Z,1.70
2023-05-23T11:48:12.857Z,1.50
2023-05-23T11:50:59.081Z,1.60
2023-05-23T11:53:27.816Z,1.30
2023-05-23T11:55:57.810Z,1.50
2023-05-23T11:58:34.113Z,1.60
2023-05-23T12:01:06.562Z,1.60
2023-05-23T12:03:35.196Z,1.70
2023-05-23T12:06:03.133Z,2.00
2023-05-23T12:10:59.510Z,1.90
2023-05-23T12:13:30.518Z,1.70
2023-05-23T12:16:01.979Z,1.60
2023-05-23T12:18:31.829Z,1.60
2023-05-23T12:21:08.649Z,1.80
2023-05-23T12:23:36.723Z,2.30
2023-05-23T12:26:07.314Z,2.00
2023-05-23T12:28:43.469Z,1.70
2023-05-23T12:31:18.259Z,1.70
2023-05-23T12:33:48.240Z,1.80
2023-05-23T12:36:26.201Z,2.00
2023-05-23T12:38:54.211Z,1.80
2023-05-23T12:41:22.388Z,1.80
2023-05-23T12:43:51.909Z,2.40
2023-05-23T12:46:20.714Z,1.90
2023-05-23T12:48:48.610Z,1.90
2023-05-23T12:51:16.286Z,2.00
2023-05-23T12:56:11.993Z,2.20
2023-05-23T13:01:07.262Z,1.80
2023-05-23T13:03:35.236Z,1.80
2023-05-23T13:06:02.992Z,1.80
2023-05-23T13:10:58.329Z,2.10
2023-05-23T13:13:26.836Z,1.50
2023-05-23T13:15:54.439Z,2.00
2023-05-23T13:20:49.615Z,1.70
2023-05-23T13:25:44.946Z,1.70
2023-05-23T13:28:12.630Z,1.50
2023-05-23T13:30:40.469Z,1.80
2023-05-23T13:33:08.398Z,1.70
2023-05-23T13:38:35.292Z,1.60
2023-05-23T13:41:02.449Z,1.80
2023-05-23T13:43:29.294Z,2.00
2023-05-23T13:45:56.071Z,2.00
2023-05-23T13:48:23.110Z,1.90
2023-05-23T13:50:50.099Z,1.90
2023-05-23T13:53:17.207Z,1.90
2023-05-23T13:55:47.149Z,2.10
2023-05-23T13:58:14.098Z,1.80
2023-05-23T14:00:41.504Z,2.10
2023-05-23T14:03:09.298Z,2.00
2023-05-23T14:05:36.668Z,2.00
2023-05-23T14:08:04.090Z,2.00
2023-05-23T14:10:32.833Z,1.80
2023-05-23T14:13:01.012Z,2.00
2023-05-23T14:15:28.139Z,2.10
2023-05-23T14:17:55.816Z,1.80
2023-05-23T14:20:22.807Z,1.70
2023-05-23T14:22:50.729Z,1.60
2023-05-23T14:25:17.926Z,1.50
2023-05-23T14:27:44.887Z,1.80
2023-05-23T14:30:12.480Z,1.60
2023-05-23T14:32:39.859Z,2.00
2023-05-23T14:35:08.797Z,1.50
2023-05-23T14:37:36.535Z,1.50
2023-05-23T14:42:32.124Z,1.70
2023-05-23T14:44:59.305Z,1.60
2023-05-23T14:47:26.423Z,1.70
2023-05-23T14:49:53.279Z,1.60
2023-05-23T14:52:20.538Z,1.60
2023-05-23T14:54:47.332Z,1.50
2023-05-23T14:57:14.261Z,1.60
2023-05-23T14:59:41.350Z,1.90
2023-05-23T15:02:08.377Z,1.30
2023-05-23T15:07:03.898Z,1.30
2023-05-23T15:09:31.780Z,1.50
2023-05-23T15:11:59.037Z,1.30
2023-05-23T15:14:29.264Z,1.50
2023-05-23T15:16:56.575Z,1.70
2023-05-23T15:19:23.775Z,1.40
2023-05-23T15:21:51.745Z,1.50
2023-05-23T15:24:18.860Z,1.30
2023-05-23T15:26:46.526Z,1.60
2023-05-23T15:29:14.856Z,1.40
2023-05-23T15:31:42.137Z,1.50
2023-05-23T15:34:09.006Z,1.40
2023-05-23T15:36:36.313Z,1.50
2023-05-23T15:39:04.798Z,1.30
2023-05-23T15:41:32.186Z,1.50
2023-05-23T15:43:59.179Z,1.60
2023-05-23T15:46:26.404Z,1.40
2023-05-23T15:48:53.349Z,1.50
2023-05-23T15:51:20.530Z,1.40
2023-05-23T15:54:00.759Z,1.60
2023-05-23T15:56:28.328Z,1.60
2023-05-23T15:58:55.514Z,1.60
2023-05-23T16:01:22.510Z,1.60
2023-05-23T16:03:49.557Z,1.30
2023-05-23T16:06:16.500Z,1.60
2023-05-23T16:08:43.468Z,1.50
2023-05-23T16:11:10.626Z,1.20
2023-05-23T16:13:37.425Z,1.40
2023-05-23T16:16:04.767Z,1.30
2023-05-23T16:18:31.876Z,1.50
2023-05-23T16:20:58.970Z,1.50
2023-05-23T16:23:26.146Z,1.40
2023-05-23T16:25:53.202Z,1.70
2023-05-23T16:28:20.447Z,1.40
2023-05-23T16:30:47.333Z,1.20
2023-05-23T16:33:14.625Z,1.40
2023-05-23T16:35:41.900Z,1.50
2023-05-23T16:38:09.072Z,1.80
2023-05-23T16:40:36.174Z,1.60
2023-05-23T16:43:03.609Z,1.50
2023-05-23T16:45:32.028Z,1.50
2023-05-23T16:48:00.761Z,1.40
2023-05-23T16:50:27.830Z,1.50
2023-05-23T16:52:54.985Z,1.70
2023-05-23T16:55:21.763Z,1.90
2023-05-23T16:57:48.974Z,1.50
2023-05-23T17:00:16.552Z,1.80
2023-05-23T17:02:43.969Z,1.70
2023-05-23T17:05:11.180Z,1.80
2023-05-23T17:07:37.944Z,1.70
2023-05-23T17:10:05.495Z,1.40
2023-05-23T17:15:00.835Z,1.20
2023-05-23T17:17:27.886Z,1.30
2023-05-23T17:19:54.788Z,1.20
2023-05-23T17:22:21.867Z,1.50
2023-05-23T17:24:48.740Z,1.80
2023-05-23T17:27:16.130Z,1.40
2023-05-23T17:29:43.357Z,1.70
2023-05-23T17:32:10.180Z,1.50
2023-05-23T17:37:04.617Z,0.90
2023-05-23T17:39:32.966Z,1.60
2023-05-23T17:42:00.514Z,1.50
2023-05-23T17:44:27.301Z,1.50
2023-05-23T17:46:54.344Z,1.50
2023-05-23T17:49:21.174Z,1.70
2023-05-23T17:51:48.125Z,1.60
2023-05-23T17:54:15.295Z,1.50
2023-05-23T17:56:42.780Z,1.80
2023-05-23T17:59:09.829Z,1.60
2023-05-23T18:01:36.836Z,2.10
2023-05-23T18:04:03.704Z,2.10
2023-05-23T18:06:31.460Z,2.20
2023-05-23T18:08:58.512Z,1.80
2023-05-23T18:11:27.464Z,1.90
2023-05-23T18:13:54.328Z,2.10
2023-05-23T18:16:21.769Z,2.30
2023-05-23T18:18:49.641Z,1.90
2023-05-23T18:21:18.180Z,2.20
2023-05-23T18:23:45.283Z,1.80
2023-05-23T18:26:12.145Z,2.10
2023-05-23T18:28:39.074Z,1.90
2023-05-23T18:31:06.110Z,1.80
2023-05-23T18:33:33.237Z,1.70
2023-05-23T18:36:00.960Z,2.00
2023-05-23T18:38:27.835Z,1.70
2023-05-23T18:40:54.718Z,1.80
2023-05-23T18:43:22.485Z,1.90
2023-05-23T18:45:49.379Z,2.10
2023-05-23T18:48:16.973Z,2.00
2023-05-23T18:50:44.249Z,2.10
2023-05-23T18:53:11.584Z,1.90
2023-05-23T18:55:38.400Z,2.00
2023-05-23T18:58:05.307Z,2.20
2023-05-23T19:00:32.527Z,1.80
2023-05-23T19:02:59.383Z,2.20
2023-05-23T19:05:26.621Z,1.90
2023-05-23T19:07:53.829Z,1.90
2023-05-23T19:10:21.492Z,1.90
2023-05-23T19:12:48.650Z,1.90
2023-05-23T19:15:15.774Z,2.20
2023-05-23T19:17:43.151Z,2.30
2023-05-23T19:20:11.459Z,2.40
2023-05-23T19:22:50.899Z,2.50
2023-05-23T19:25:20.035Z,1.80
2023-05-23T19:27:47.157Z,1.80
2023-05-23T19:30:14.723Z,1.70
2023-05-23T19:32:41.744Z,2.70
2023-05-23T19:35:09.184Z,2.30
2023-05-23T19:37:36.422Z,2.40
2023-05-23T19:40:03.936Z,2.00
2023-05-23T19:42:31.818Z,2.10
2023-05-23T19:44:58.697Z,2.20
2023-05-23T19:47:25.799Z,2.30
2023-05-23T19:49:52.804Z,2.50
2023-05-23T19:52:20.132Z,2.10
2023-05-23T19:54:47.000Z,2.30
2023-05-23T19:57:13.741Z,2.40
2023-05-23T19:59:41.743Z,2.20
2023-05-23T20:02:09.380Z,2.30
2023-05-23T20:04:36.712Z,2.50
2023-05-23T20:07:04.091Z,2.40
2023-05-23T20:09:31.044Z,2.60
2023-05-23T20:11:57.914Z,2.70
2023-05-23T20:14:25.169Z,2.10
2023-05-23T20:16:53.394Z,2.10
2023-05-23T20:19:20.375Z,2.50
2023-05-23T20:21:47.726Z,2.50
2023-05-23T20:24:14.629Z,2.70
2023-05-23T20:26:42.057Z,2.60
2023-05-23T20:29:08.871Z,2.20
2023-05-23T20:31:37.064Z,2.30
2023-05-23T20:34:03.869Z,2.80
2023-05-23T20:36:30.898Z,2.30
2023-05-23T20:38:58.355Z,2.40
2023-05-23T20:41:25.126Z,2.40
2023-05-23T20:43:52.072Z,2.60
2023-05-23T20:46:18.948Z,2.70
2023-05-23T20:48:46.449Z,2.30
2023-05-23T20:53:41.112Z,2.80
2023-05-23T20:56:09.934Z,2.50
2023-05-23T20:58:37.494Z,2.70
2023-05-23T21:01:04.467Z,2.90
2023-05-23T21:03:32.905Z,2.20
2023-05-23T21:05:59.881Z,2.80
2023-05-23T21:08:26.868Z,2.20
2023-05-23T21:10:56.033Z,2.80
2023-05-23T21:13:22.932Z,2.40
2023-05-23T21:15:49.933Z,2.60
2023-05-23T21:18:16.730Z,2.70
2023-05-23T21:20:43.834Z,2.70
2023-05-23T21:23:10.927Z,2.90
2023-05-23T21:25:37.666Z,2.70
2023-05-23T21:28:04.805Z,2.70
2023-05-23T21:30:31.803Z,2.60
2023-05-23T21:32:59.224Z,2.70
2023-05-23T21:35:26.280Z,2.60
2023-05-23T21:37:53.467Z,2.50
2023-05-23T21:40:20.851Z,2.90
2023-05-23T21:42:47.691Z,3.10
2023-05-23T21:45:14.664Z,2.90
2023-05-23T21:47:44.148Z,2.90
2023-05-23T21:50:11.045Z,2.50
2023-05-23T21:52:37.970Z,3.00
2023-05-23T21:55:05.501Z,2.70
2023-05-23T21:57:32.652Z,2.70
2023-05-23T21:59:59.523Z,3.00
2023-05-23T22:02:26.262Z,2.90
2023-05-23T22:04:53.316Z,2.80
2023-05-23T22:07:24.572Z,3.00
2023-05-23T22:09:52.977Z,2.80
2023-05-23T22:12:20.185Z,3.00
2023-05-23T22:14:47.255Z,3.00
2023-05-23T22:17:14.345Z,3.40
2023-05-23T22:19:41.270Z,2.90
2023-05-23T22:22:11.472Z,2.90
2023-05-23T22:24:38.695Z,3.30
2023-05-23T22:27:05.819Z,2.70
2023-05-23T22:29:33.440Z,2.90
2023-05-23T22:32:00.429Z,2.90
2023-05-23T22:34:27.418Z,2.90
2023-05-23T22:36:54.208Z,2.70
2023-05-23T22:39:21.001Z,3.10
2023-05-23T22:41:48.129Z,2.90
2023-05-23T22:44:14.974Z,3.10
2023-05-23T22:46:42.307Z,3.30
2023-05-23T22:49:09.695Z,2.90
2023-05-23T22:51:36.719Z,3.10
2023-05-23T22:54:03.533Z,3.20
2023-05-23T22:56:30.327Z,3.20
2023-05-23T22:58:57.120Z,3.30
2023-05-23T23:01:23.942Z,3.00
2023-05-23T23:03:50.790Z,3.40
2023-05-23T23:06:20.446Z,3.30
2023-05-23T23:08:47.202Z,3.40
2023-05-23T23:11:14.062Z,3.40
2023-05-23T23:13:41.216Z,2.90
2023-05-23T23:16:08.192Z,3.20
2023-05-23T23:18:35.181Z,2.90
2023-05-23T23:21:01.960Z,3.20
2023-05-23T23:23:30.001Z,3.00
2023-05-23T23:25:58.869Z,3.40
2023-05-23T23:28:25.968Z,3.40
2023-05-23T23:30:52.838Z,4.00
2023-05-23T23:33:19.864Z,3.50
2023-05-23T23:35:48.071Z,4.10
2023-05-23T23:38:15.852Z,3.50
2023-05-23T23:40:44.795Z,4.40
2023-05-23T23:43:13.154Z,3.80
2023-05-23T23:45:40.444Z,4.00
2023-05-23T23:48:07.434Z,3.90
2023-05-23T23:50:34.612Z,3.70
2023-05-23T23:53:01.373Z,4.00
2023-05-23T23:55:28.481Z,3.80
2023-05-23T23:57:55.188Z,4.10
